createdAt,value
2018-08-12T00:00:05.217Z,1015.29
2018-08-12T00:01:13.857Z,1015.32
2018-08-12T00:02:22.497Z,1015.27
2018-08-12T00:03:31.415Z,1015.31
2018-08-12T00:04:40.055Z,1015.25
2018-08-12T00:05:48.702Z,1015.31
2018-08-12T00:06:57.336Z,1015.24
2018-08-12T00:08:05.985Z,1015.25
2018-08-12T00:09:14.629Z,1015.26
2018-08-12T00:10:23.276Z,1015.28
2018-08-12T00:11:31.913Z,1015.19
2018-08-12T00:12:40.560Z,1015.25
2018-08-12T00:13:49.204Z,1015.21
2018-08-12T00:14:57.853Z,1015.23
2018-08-12T00:16:06.774Z,1015.24
2018-08-12T00:17:15.687Z,1015.21
2018-08-12T00:18:24.331Z,1015.18
2018-08-12T00:19:32.981Z,1015.15
2018-08-12T00:20:42.148Z,1015.13
2018-08-12T00:21:50.787Z,1015.14
2018-08-12T00:22:59.429Z,1015.15
2018-08-12T00:24:08.071Z,1015.13
2018-08-12T00:25:16.719Z,1015.16
2018-08-12T00:26:25.356Z,1015.09
2018-08-12T00:27:34.000Z,1015.07
2018-08-12T00:28:42.642Z,1015.08
2018-08-12T00:29:51.343Z,1015.08
2018-08-12T00:30:59.928Z,1015.01
2018-08-12T00:32:08.574Z,1015.02
2018-08-12T00:33:17.485Z,1014.99
2018-08-12T00:34:26.138Z,1015.02
2018-08-12T00:35:34.780Z,1015.02
2018-08-12T00:36:43.686Z,1014.98
2018-08-12T00:37:52.332Z,1014.96
2018-08-12T00:39:01.233Z,1014.97
2018-08-12T00:40:09.888Z,1014.97
2018-08-12T00:41:18.792Z,1014.94
2018-08-12T00:42:27.433Z,1014.98
2018-08-12T00:43:36.073Z,1015.02
2018-08-12T00:44:44.725Z,1014.97
2018-08-12T00:45:53.364Z,1015.02
2018-08-12T00:47:02.009Z,1015.02
2018-08-12T00:48:10.647Z,1015.01
2018-08-12T00:49:19.293Z,1014.99
2018-08-12T00:50:27.935Z,1015.01
2018-08-12T00:51:36.578Z,1015.04
2018-08-12T00:52:45.212Z,1015.01
2018-08-12T00:53:53.857Z,1015.01
2018-08-12T00:55:02.501Z,1014.98
2018-08-12T00:56:11.149Z,1014.96
2018-08-12T00:57:19.794Z,1014.98
2018-08-12T00:58:28.439Z,1014.98
2018-08-12T00:59:37.082Z,1014.96
2018-08-12T01:00:45.731Z,1014.92
2018-08-12T01:01:54.375Z,1014.91
2018-08-12T01:03:03.012Z,1014.94
2018-08-12T01:04:11.659Z,1014.93
2018-08-12T01:05:20.310Z,1014.89
2018-08-12T01:06:28.951Z,1014.93
2018-08-12T01:07:37.599Z,1014.91
2018-08-12T01:08:46.240Z,1014.9
2018-08-12T01:09:54.884Z,1014.86
2018-08-12T01:11:03.524Z,1014.85
2018-08-12T01:12:12.173Z,1014.86
2018-08-12T01:13:20.816Z,1014.85
2018-08-12T01:14:29.464Z,1014.85
2018-08-12T01:15:38.110Z,1014.88
2018-08-12T01:16:46.749Z,1014.88
2018-08-12T01:17:55.389Z,1014.89
2018-08-12T01:19:04.047Z,1014.88
2018-08-12T01:20:12.674Z,1014.86
2018-08-12T01:21:21.313Z,1014.86
2018-08-12T01:22:30.215Z,1014.8
2018-08-12T01:23:38.857Z,1014.84
2018-08-12T01:24:47.505Z,1014.81
2018-08-12T01:25:56.140Z,1014.83
2018-08-12T01:27:04.787Z,1014.83
2018-08-12T01:28:13.428Z,1014.84
2018-08-12T01:29:22.076Z,1014.81
2018-08-12T01:30:30.977Z,1014.81
2018-08-12T01:31:39.621Z,1014.83
2018-08-12T01:32:48.261Z,1014.84
2018-08-12T01:33:56.903Z,1014.8
2018-08-12T01:35:05.553Z,1014.8
2018-08-12T01:36:14.197Z,1014.77
2018-08-12T01:37:22.840Z,1014.82
2018-08-12T01:38:31.476Z,1014.79
2018-08-12T01:39:40.121Z,1014.78
2018-08-12T01:40:48.765Z,1014.8
2018-08-12T01:41:57.410Z,1014.77
2018-08-12T01:43:06.049Z,1014.72
2018-08-12T01:44:14.699Z,1014.73
2018-08-12T01:45:23.602Z,1014.72
2018-08-12T01:46:32.247Z,1014.67
2018-08-12T01:47:40.891Z,1014.68
2018-08-12T01:48:49.529Z,1014.71
2018-08-12T01:49:58.173Z,1014.67
2018-08-12T01:51:06.818Z,1014.66
2018-08-12T01:52:15.463Z,1014.61
2018-08-12T01:53:24.103Z,1014.58
2018-08-12T01:54:32.749Z,1014.54
2018-08-12T01:55:41.392Z,1014.54
2018-08-12T01:56:50.040Z,1014.52
2018-08-12T01:57:58.681Z,1014.53
2018-08-12T01:59:07.323Z,1014.55
2018-08-12T02:00:15.968Z,1014.51
2018-08-12T02:01:24.614Z,1014.51
2018-08-12T02:02:33.252Z,1014.53
2018-08-12T02:03:41.895Z,1014.51
2018-08-12T02:04:50.800Z,1014.46
2018-08-12T02:05:59.456Z,1014.41
2018-08-12T02:07:08.098Z,1014.37
2018-08-12T02:08:16.738Z,1014.35
2018-08-12T02:09:25.380Z,1014.34
2018-08-12T02:10:34.021Z,1014.32
2018-08-12T02:11:42.671Z,1014.31
2018-08-12T02:12:51.309Z,1014.3
2018-08-12T02:13:59.959Z,1014.29
2018-08-12T02:15:08.598Z,1014.25
2018-08-12T02:16:17.248Z,1014.24
2018-08-12T02:17:26.150Z,1014.26
2018-08-12T02:18:34.799Z,1014.28
2018-08-12T02:19:43.432Z,1014.27
2018-08-12T02:20:52.084Z,1014.27
2018-08-12T02:22:00.727Z,1014.23
2018-08-12T02:23:09.634Z,1014.2
2018-08-12T02:24:18.268Z,1014.19
2018-08-12T02:25:26.912Z,1014.19
2018-08-12T02:26:35.559Z,1014.16
2018-08-12T02:27:44.201Z,1014.12
2018-08-12T02:28:52.847Z,1014.09
2018-08-12T02:30:01.482Z,1014.06
2018-08-12T02:31:10.401Z,1014.03
2018-08-12T02:32:19.299Z,1014.02
2018-08-12T02:33:27.955Z,1014.04
2018-08-12T02:34:36.852Z,1014.03
2018-08-12T02:35:45.503Z,1014.02
2018-08-12T02:36:54.140Z,1014.02
2018-08-12T02:38:02.796Z,1014.01
2018-08-12T02:39:11.434Z,1014.02
2018-08-12T02:40:20.085Z,1013.98
2018-08-12T02:41:28.994Z,1014
2018-08-12T02:42:37.656Z,1013.93
2018-08-12T02:43:46.821Z,1013.92
2018-08-12T02:44:56.000Z,1013.93
2018-08-12T02:46:05.192Z,1013.88
2018-08-12T02:47:13.847Z,1013.89
2018-08-12T02:48:22.495Z,1013.87
2018-08-12T02:49:31.403Z,1013.89
2018-08-12T02:50:40.846Z,1013.91
2018-08-12T02:51:49.483Z,1013.91
2018-08-12T02:52:58.148Z,1013.91
2018-08-12T02:54:06.793Z,1013.87
2018-08-12T02:55:15.444Z,1013.87
2018-08-12T02:56:24.077Z,1013.86
2018-08-12T02:57:32.732Z,1013.84
2018-08-12T02:58:41.386Z,1013.83
2018-08-12T02:59:50.284Z,1013.84
2018-08-12T03:00:58.919Z,1013.83
2018-08-12T03:02:07.834Z,1013.81
2018-08-12T03:03:16.485Z,1013.8
2018-08-12T03:04:25.128Z,1013.77
2018-08-12T03:05:34.289Z,1013.77
2018-08-12T03:06:42.937Z,1013.74
2018-08-12T03:07:51.580Z,1013.75
2018-08-12T03:09:00.223Z,1013.7
2018-08-12T03:10:09.131Z,1013.71
2018-08-12T03:11:17.779Z,1013.72
2018-08-12T03:12:26.425Z,1013.68
2018-08-12T03:13:35.332Z,1013.68
2018-08-12T03:14:43.972Z,1013.64
2018-08-12T03:15:52.622Z,1013.66
2018-08-12T03:17:01.525Z,1013.66
2018-08-12T03:18:10.711Z,1013.61
2018-08-12T03:19:19.346Z,1013.6
2018-08-12T03:20:28.252Z,1013.59
2018-08-12T03:21:37.433Z,1013.59
2018-08-12T03:22:46.343Z,1013.58
2018-08-12T03:23:54.991Z,1013.58
2018-08-12T03:25:03.637Z,1013.57
2018-08-12T03:26:12.545Z,1013.56
2018-08-12T03:27:21.456Z,1013.54
2018-08-12T03:28:30.107Z,1013.52
2018-08-12T03:29:39.008Z,1013.48
2018-08-12T03:30:47.655Z,1013.49
2018-08-12T03:31:56.566Z,1013.49
2018-08-12T03:33:05.489Z,1013.46
2018-08-12T03:34:14.387Z,1013.45
2018-08-12T03:35:23.036Z,1013.44
2018-08-12T03:36:31.950Z,1013.41
2018-08-12T03:37:40.589Z,1013.39
2018-08-12T03:38:49.492Z,1013.41
2018-08-12T03:39:58.134Z,1013.37
2018-08-12T03:41:06.774Z,1013.38
2018-08-12T03:42:15.415Z,1013.4
2018-08-12T03:43:24.062Z,1013.39
2018-08-12T03:44:32.967Z,1013.35
2018-08-12T03:45:41.609Z,1013.34
2018-08-12T03:46:50.247Z,1013.32
2018-08-12T03:47:59.158Z,1013.34
2018-08-12T03:49:07.799Z,1013.28
2018-08-12T03:50:16.441Z,1013.31
2018-08-12T03:51:25.080Z,1013.32
2018-08-12T03:52:33.992Z,1013.35
2018-08-12T03:53:42.632Z,1013.31
2018-08-12T03:54:51.275Z,1013.29
2018-08-12T03:55:59.915Z,1013.28
2018-08-12T03:57:08.562Z,1013.28
2018-08-12T03:58:17.203Z,1013.23
2018-08-12T03:59:25.850Z,1013.23
2018-08-12T04:00:34.492Z,1013.24
2018-08-12T04:01:43.130Z,1013.25
2018-08-12T04:02:52.040Z,1013.23
2018-08-12T04:04:00.676Z,1013.23
2018-08-12T04:05:09.329Z,1013.22
2018-08-12T04:06:17.961Z,1013.21
2018-08-12T04:07:26.607Z,1013.18
2018-08-12T04:08:35.254Z,1013.22
2018-08-12T04:09:43.901Z,1013.18
2018-08-12T04:10:52.535Z,1013.18
2018-08-12T04:12:01.178Z,1013.18
2018-08-12T04:13:09.818Z,1013.15
2018-08-12T04:14:18.472Z,1013.15
2018-08-12T04:15:27.120Z,1013.14
2018-08-12T04:16:35.758Z,1013.1
2018-08-12T04:17:44.397Z,1013.11
2018-08-12T04:18:53.067Z,1013.1
2018-08-12T04:20:01.689Z,1013.12
2018-08-12T04:21:10.327Z,1013.14
2018-08-12T04:22:18.976Z,1013.08
2018-08-12T04:23:27.614Z,1013.07
2018-08-12T04:24:36.528Z,1013.11
2018-08-12T04:25:45.170Z,1013.12
2018-08-12T04:26:54.345Z,1013.11
2018-08-12T04:28:02.976Z,1013.1
2018-08-12T04:29:11.631Z,1013.11
2018-08-12T04:30:20.274Z,1013.09
2018-08-12T04:31:28.918Z,1013.1
2018-08-12T04:32:37.556Z,1013.08
2018-08-12T04:33:46.198Z,1013.06
2018-08-12T04:34:54.846Z,1013.02
2018-08-12T04:36:03.490Z,1013
2018-08-12T04:37:12.397Z,1013.04
2018-08-12T04:38:21.031Z,1013.04
2018-08-12T04:39:29.679Z,1012.99
2018-08-12T04:40:38.317Z,1013.01
2018-08-12T04:41:46.965Z,1013.01
2018-08-12T04:42:55.601Z,1012.98
2018-08-12T04:44:04.250Z,1012.97
2018-08-12T04:45:12.886Z,1012.95
2018-08-12T04:46:21.540Z,1012.97
2018-08-12T04:47:30.173Z,1012.96
2018-08-12T04:48:38.827Z,1012.92
2018-08-12T04:49:47.468Z,1012.95
2018-08-12T04:50:56.119Z,1012.94
2018-08-12T04:52:04.760Z,1012.95
2018-08-12T04:53:13.664Z,1012.93
2018-08-12T04:54:22.302Z,1012.95
2018-08-12T04:55:30.943Z,1012.95
2018-08-12T04:56:39.599Z,1012.93
2018-08-12T04:57:48.237Z,1012.91
2018-08-12T04:58:57.147Z,1012.94
2018-08-12T05:00:05.779Z,1012.94
2018-08-12T05:01:14.691Z,1012.88
2018-08-12T05:02:23.337Z,1012.9
2018-08-12T05:03:31.978Z,1012.87
2018-08-12T05:04:40.630Z,1012.92
2018-08-12T05:05:49.266Z,1012.87
2018-08-12T05:06:57.908Z,1012.84
2018-08-12T05:08:06.548Z,1012.86
2018-08-12T05:09:15.200Z,1012.85
2018-08-12T05:10:23.841Z,1012.83
2018-08-12T05:11:32.481Z,1012.83
2018-08-12T05:12:41.383Z,1012.82
2018-08-12T05:13:50.025Z,1012.77
2018-08-12T05:14:58.677Z,1012.8
2018-08-12T05:16:07.315Z,1012.8
2018-08-12T05:17:15.963Z,1012.77
2018-08-12T05:18:24.598Z,1012.78
2018-08-12T05:19:33.249Z,1012.79
2018-08-12T05:20:41.887Z,1012.8
2018-08-12T05:21:50.535Z,1012.8
2018-08-12T05:22:59.167Z,1012.84
2018-08-12T05:24:07.818Z,1012.8
2018-08-12T05:25:16.990Z,1012.8
2018-08-12T05:26:25.632Z,1012.79
2018-08-12T05:27:34.267Z,1012.8
2018-08-12T05:28:42.912Z,1012.79
2018-08-12T05:29:51.559Z,1012.76
2018-08-12T05:31:00.205Z,1012.77
2018-08-12T05:32:08.854Z,1012.79
2018-08-12T05:33:17.489Z,1012.77
2018-08-12T05:34:26.137Z,1012.75
2018-08-12T05:35:35.041Z,1012.79
2018-08-12T05:36:43.693Z,1012.76
2018-08-12T05:37:52.327Z,1012.75
2018-08-12T05:39:00.977Z,1012.72
2018-08-12T05:40:09.616Z,1012.73
2018-08-12T05:41:18.269Z,1012.72
2018-08-12T05:42:26.907Z,1012.67
2018-08-12T05:43:35.547Z,1012.68
2018-08-12T05:44:44.191Z,1012.68
2018-08-12T05:45:52.841Z,1012.7
2018-08-12T05:47:01.490Z,1012.71
2018-08-12T05:48:10.128Z,1012.7
2018-08-12T05:49:18.772Z,1012.68
2018-08-12T05:50:27.412Z,1012.65
2018-08-12T05:51:36.157Z,1012.67
2018-08-12T05:52:44.705Z,1012.65
2018-08-12T05:53:53.352Z,1012.66
2018-08-12T05:55:01.987Z,1012.62
2018-08-12T05:56:10.642Z,1012.61
2018-08-12T05:57:19.684Z,1012.61
2018-08-12T05:58:28.202Z,1012.58
2018-08-12T05:59:36.837Z,1012.59
2018-08-12T06:00:45.486Z,1012.56
2018-08-12T06:01:54.130Z,1012.55
2018-08-12T06:03:02.777Z,1012.54
2018-08-12T06:04:11.681Z,1012.54
2018-08-12T06:05:20.602Z,1012.49
2018-08-12T06:06:29.245Z,1012.47
2018-08-12T06:07:37.893Z,1012.45
2018-08-12T06:08:46.542Z,1012.48
2018-08-12T06:09:55.177Z,1012.47
2018-08-12T06:11:03.823Z,1012.45
2018-08-12T06:12:12.466Z,1012.41
2018-08-12T06:13:21.117Z,1012.41
2018-08-12T06:14:29.758Z,1012.41
2018-08-12T06:15:38.438Z,1012.41
2018-08-12T06:16:47.050Z,1012.39
2018-08-12T06:17:55.698Z,1012.44
2018-08-12T06:19:04.602Z,1012.42
2018-08-12T06:20:13.256Z,1012.39
2018-08-12T06:21:21.894Z,1012.38
2018-08-12T06:22:30.542Z,1012.36
2018-08-12T06:23:39.186Z,1012.35
2018-08-12T06:24:47.830Z,1012.32
2018-08-12T06:25:56.477Z,1012.36
2018-08-12T06:27:05.121Z,1012.33
2018-08-12T06:28:13.780Z,1012.36
2018-08-12T06:29:22.425Z,1012.35
2018-08-12T06:30:31.331Z,1012.3
2018-08-12T06:31:39.970Z,1012.36
2018-08-12T06:32:48.619Z,1012.35
2018-08-12T06:33:57.264Z,1012.38
2018-08-12T06:35:05.909Z,1012.35
2018-08-12T06:36:14.549Z,1012.38
2018-08-12T06:37:23.199Z,1012.28
2018-08-12T06:38:31.844Z,1012.3
2018-08-12T06:39:40.492Z,1012.33
2018-08-12T06:40:49.694Z,1012.29
2018-08-12T06:41:58.348Z,1012.31
2018-08-12T06:43:06.996Z,1012.32
2018-08-12T06:44:15.907Z,1012.24
2018-08-12T06:45:24.559Z,1012.24
2018-08-12T06:46:33.200Z,1012.22
2018-08-12T06:47:41.844Z,1012.26
2018-08-12T06:48:50.489Z,1012.25
2018-08-12T06:49:59.401Z,1012.28
2018-08-12T06:51:08.043Z,1012.26
2018-08-12T06:52:16.688Z,1012.28
2018-08-12T06:53:25.333Z,1012.33
2018-08-12T06:54:33.984Z,1012.32
2018-08-12T06:55:42.624Z,1012.36
2018-08-12T06:56:51.531Z,1012.36
2018-08-12T06:58:00.172Z,1012.35
2018-08-12T06:59:08.827Z,1012.37
2018-08-12T07:00:17.472Z,1012.35
2018-08-12T07:01:26.113Z,1012.42
2018-08-12T07:02:34.755Z,1012.38
2018-08-12T07:03:43.406Z,1012.35
2018-08-12T07:04:52.327Z,1012.38
2018-08-12T07:06:00.972Z,1012.39
2018-08-12T07:07:09.882Z,1012.39
2018-08-12T07:08:18.520Z,1012.41
2018-08-12T07:09:27.174Z,1012.39
2018-08-12T07:10:36.350Z,1012.33
2018-08-12T07:11:45.001Z,1012.35
2018-08-12T07:12:54.168Z,1012.33
2018-08-12T07:14:02.822Z,1012.32
2018-08-12T07:15:11.467Z,1012.31
2018-08-12T07:16:20.376Z,1012.3
2018-08-12T07:17:29.012Z,1012.3
2018-08-12T07:18:37.660Z,1012.27
2018-08-12T07:19:46.578Z,1012.23
2018-08-12T07:20:55.224Z,1012.23
2018-08-12T07:22:03.878Z,1012.22
2018-08-12T07:23:12.518Z,1012.2
2018-08-12T07:24:21.169Z,1012.18
2018-08-12T07:25:29.808Z,1012.22
2018-08-12T07:26:38.462Z,1012.27
2018-08-12T07:27:47.360Z,1012.21
2018-08-12T07:28:56.012Z,1012.2
2018-08-12T07:30:04.651Z,1012.18
2018-08-12T07:31:13.306Z,1012.2
2018-08-12T07:32:21.941Z,1012.19
2018-08-12T07:33:30.592Z,1012.19
2018-08-12T07:34:39.496Z,1012.17
2018-08-12T07:35:48.151Z,1012.19
2018-08-12T07:36:56.794Z,1012.18
2018-08-12T07:38:05.700Z,1012.17
2018-08-12T07:39:14.345Z,1012.21
2018-08-12T07:40:22.992Z,1012.2
2018-08-12T07:41:31.646Z,1012.18
2018-08-12T07:42:40.286Z,1012.16
2018-08-12T07:43:48.938Z,1012.12
2018-08-12T07:44:58.100Z,1012.13
2018-08-12T07:46:07.021Z,1012.16
2018-08-12T07:47:15.661Z,1012.08
2018-08-12T07:48:24.310Z,1012.08
2018-08-12T07:49:33.221Z,1012.05
2018-08-12T07:50:41.877Z,1012.06
2018-08-12T07:51:50.528Z,1012.07
2018-08-12T07:52:59.182Z,1012.08
2018-08-12T07:54:08.084Z,1012.06
2018-08-12T07:55:16.732Z,1012.06
2018-08-12T07:56:25.383Z,1012.06
2018-08-12T07:57:34.029Z,1012.08
2018-08-12T07:58:42.678Z,1012.01
2018-08-12T07:59:51.321Z,1012.03
2018-08-12T08:00:59.963Z,1012.04
2018-08-12T08:02:08.611Z,1012.02
2018-08-12T08:03:17.265Z,1012.04
2018-08-12T08:04:26.173Z,1012.05
2018-08-12T08:05:34.821Z,1012.09
2018-08-12T08:06:43.468Z,1012.06
2018-08-12T08:07:52.121Z,1012.02
2018-08-12T08:09:00.768Z,1011.95
2018-08-12T08:10:09.688Z,1011.92
2018-08-12T08:11:18.599Z,1011.94
2018-08-12T08:12:27.562Z,1011.92
2018-08-12T08:13:36.164Z,1011.93
2018-08-12T08:14:44.810Z,1011.9
2018-08-12T08:15:53.711Z,1011.91
2018-08-12T08:17:02.360Z,1011.91
2018-08-12T08:18:11.014Z,1011.86
2018-08-12T08:19:19.662Z,1011.86
2018-08-12T08:20:28.312Z,1011.87
2018-08-12T08:21:36.954Z,1011.88
2018-08-12T08:22:45.606Z,1011.91
2018-08-12T08:23:54.253Z,1011.87
2018-08-12T08:25:03.426Z,1011.81
2018-08-12T08:26:12.599Z,1011.81
2018-08-12T08:27:21.252Z,1011.79
2018-08-12T08:28:29.899Z,1011.78
2018-08-12T08:29:38.551Z,1011.75
2018-08-12T08:30:47.198Z,1011.74
2018-08-12T08:31:56.098Z,1011.71
2018-08-12T08:33:04.500Z,1011.73
2018-08-12T08:34:13.152Z,1011.71
2018-08-12T08:35:21.802Z,1011.69
2018-08-12T08:36:30.446Z,1011.64
2018-08-12T08:37:39.101Z,1011.69
2018-08-12T08:38:47.756Z,1011.65
2018-08-12T08:39:56.673Z,1011.66
2018-08-12T08:41:05.317Z,1011.67
2018-08-12T08:42:14.232Z,1011.64
2018-08-12T08:43:22.881Z,1011.64
2018-08-12T08:44:31.537Z,1011.63
2018-08-12T08:45:40.186Z,1011.65
2018-08-12T08:46:48.840Z,1011.57
2018-08-12T08:47:57.743Z,1011.57
2018-08-12T08:49:06.396Z,1011.59
2018-08-12T08:50:15.048Z,1011.59
2018-08-12T08:51:23.957Z,1011.58
2018-08-12T08:52:32.598Z,1011.53
2018-08-12T08:53:41.245Z,1011.55
2018-08-12T08:54:49.901Z,1011.57
2018-08-12T08:55:58.564Z,1011.55
2018-08-12T08:57:07.193Z,1011.58
2018-08-12T08:58:15.850Z,1011.59
2018-08-12T08:59:24.756Z,1011.56
2018-08-12T09:00:33.407Z,1011.55
2018-08-12T09:01:42.057Z,1011.57
2018-08-12T09:02:50.720Z,1011.58
2018-08-12T09:03:59.373Z,1011.54
2018-08-12T09:05:08.027Z,1011.54
2018-08-12T09:06:16.675Z,1011.53
2018-08-12T09:07:25.865Z,1011.5
2018-08-12T09:08:34.671Z,1011.51
2018-08-12T09:09:43.162Z,1011.46
2018-08-12T09:10:51.808Z,1011.47
2018-08-12T09:12:00.459Z,1011.45
2018-08-12T09:13:09.121Z,1011.48
2018-08-12T09:14:17.764Z,1011.46
2018-08-12T09:15:26.414Z,1011.51
2018-08-12T09:16:35.058Z,1011.47
2018-08-12T09:17:43.711Z,1011.5
2018-08-12T09:18:52.361Z,1011.42
2018-08-12T09:20:01.014Z,1011.41
2018-08-12T09:21:09.918Z,1011.4
2018-08-12T09:22:18.574Z,1011.43
2018-08-12T09:23:27.219Z,1011.39
2018-08-12T09:24:35.871Z,1011.38
2018-08-12T09:25:44.519Z,1011.37
2018-08-12T09:26:53.172Z,1011.36
2018-08-12T09:28:01.822Z,1011.34
2018-08-12T09:29:10.477Z,1011.32
2018-08-12T09:30:19.128Z,1011.35
2018-08-12T09:31:27.780Z,1011.32
2018-08-12T09:32:36.435Z,1011.27
2018-08-12T09:33:45.079Z,1011.27
2018-08-12T09:34:53.727Z,1011.27
2018-08-12T09:36:02.372Z,1011.29
2018-08-12T09:37:11.024Z,1011.24
2018-08-12T09:38:19.675Z,1011.23
2018-08-12T09:39:28.330Z,1011.23
2018-08-12T09:40:37.235Z,1011.22
2018-08-12T09:41:45.889Z,1011.22
2018-08-12T09:42:54.581Z,1011.2
2018-08-12T09:44:03.530Z,1011.18
2018-08-12T09:45:12.439Z,1011.13
2018-08-12T09:46:21.090Z,1011.1
2018-08-12T09:47:29.737Z,1011.15
2018-08-12T09:48:38.389Z,1011.13
2018-08-12T09:49:47.043Z,1011.16
2018-08-12T09:50:55.691Z,1011.13
2018-08-12T09:52:04.871Z,1011.16
2018-08-12T09:53:13.785Z,1011.19
2018-08-12T09:54:22.442Z,1011.13
2018-08-12T09:55:31.087Z,1011.08
2018-08-12T09:56:39.741Z,1011.12
2018-08-12T09:57:48.385Z,1011.06
2018-08-12T09:58:57.575Z,1011.05
2018-08-12T10:00:06.221Z,1011.06
2018-08-12T10:01:14.869Z,1011.08
2018-08-12T10:02:23.513Z,1011.09
2018-08-12T10:03:32.434Z,1011.05
2018-08-12T10:04:41.089Z,1011.1
2018-08-12T10:05:49.999Z,1011.1
2018-08-12T10:06:58.651Z,1011.06
2018-08-12T10:08:07.292Z,1011.07
2018-08-12T10:09:15.953Z,1011.01
2018-08-12T10:10:24.594Z,1011.06
2018-08-12T10:11:33.253Z,1011.04
2018-08-12T10:12:42.157Z,1011.05
2018-08-12T10:13:50.813Z,1011
2018-08-12T10:14:59.459Z,1011.01
2018-08-12T10:16:08.119Z,1011.04
2018-08-12T10:17:16.770Z,1011
2018-08-12T10:18:25.414Z,1010.99
2018-08-12T10:19:34.063Z,1010.97
2018-08-12T10:20:42.722Z,1010.98
2018-08-12T10:21:51.633Z,1010.95
2018-08-12T10:23:00.279Z,1010.93
2018-08-12T10:24:09.193Z,1010.86
2018-08-12T10:25:18.104Z,1010.85
2018-08-12T10:26:27.030Z,1010.85
2018-08-12T10:27:35.676Z,1010.79
2018-08-12T10:28:44.331Z,1010.77
2018-08-12T10:29:52.974Z,1010.75
2018-08-12T10:31:01.905Z,1010.75
2018-08-12T10:32:10.551Z,1010.75
2018-08-12T10:33:19.209Z,1010.7
2018-08-12T10:34:27.849Z,1010.7
2018-08-12T10:35:36.509Z,1010.75
2018-08-12T10:36:45.428Z,1010.72
2018-08-12T10:37:54.081Z,1010.73
2018-08-12T10:39:02.723Z,1010.71
2018-08-12T10:40:11.381Z,1010.69
2018-08-12T10:41:20.035Z,1010.66
2018-08-12T10:42:28.689Z,1010.62
2018-08-12T10:43:37.342Z,1010.59
2018-08-12T10:44:45.986Z,1010.55
2018-08-12T10:45:54.636Z,1010.53
2018-08-12T10:47:03.284Z,1010.54
2018-08-12T10:48:11.944Z,1010.61
2018-08-12T10:49:20.586Z,1010.57
2018-08-12T10:50:29.243Z,1010.61
2018-08-12T10:51:38.159Z,1010.59
2018-08-12T10:52:46.819Z,1010.62
2018-08-12T10:53:55.462Z,1010.56
2018-08-12T10:55:04.114Z,1010.59
2018-08-12T10:56:12.764Z,1010.55
2018-08-12T10:57:21.690Z,1010.52
2018-08-12T10:58:30.338Z,1010.55
2018-08-12T10:59:38.983Z,1010.47
2018-08-12T11:00:47.634Z,1010.46
2018-08-12T11:01:56.284Z,1010.47
2018-08-12T11:03:04.948Z,1010.48
2018-08-12T11:04:13.597Z,1010.5
2018-08-12T11:05:22.521Z,1010.45
2018-08-12T11:06:31.431Z,1010.51
2018-08-12T11:07:40.091Z,1010.43
2018-08-12T11:08:49.004Z,1010.42
2018-08-12T11:09:57.660Z,1010.41
2018-08-12T11:11:06.303Z,1010.34
2018-08-12T11:12:14.968Z,1010.37
2018-08-12T11:13:23.615Z,1010.39
2018-08-12T11:14:32.270Z,1010.44
2018-08-12T11:15:40.913Z,1010.35
2018-08-12T11:16:49.566Z,1010.36
2018-08-12T11:17:58.223Z,1010.32
2018-08-12T11:19:06.875Z,1010.32
2018-08-12T11:20:15.531Z,1010.33
2018-08-12T11:21:24.186Z,1010.27
2018-08-12T11:22:32.843Z,1010.26
2018-08-12T11:23:41.489Z,1010.26
2018-08-12T11:24:50.154Z,1010.22
2018-08-12T11:25:58.792Z,1010.21
2018-08-12T11:27:07.450Z,1010.19
2018-08-12T11:28:16.112Z,1010.2
2018-08-12T11:29:25.054Z,1010.24
2018-08-12T11:30:33.697Z,1010.18
2018-08-12T11:31:42.612Z,1010.16
2018-08-12T11:32:51.262Z,1010.19
2018-08-12T11:33:59.923Z,1010.14
2018-08-12T11:35:08.572Z,1010.11
2018-08-12T11:36:17.484Z,1010.08
2018-08-12T11:37:26.402Z,1010.08
2018-08-12T11:38:35.059Z,1010.07
2018-08-12T11:39:43.724Z,1010.08
2018-08-12T11:40:52.374Z,1010.03
2018-08-12T11:42:01.032Z,1010.03
2018-08-12T11:43:09.671Z,1010.07
2018-08-12T11:44:18.333Z,1010.12
2018-08-12T11:45:26.979Z,1010.07
2018-08-12T11:46:35.637Z,1010.04
2018-08-12T11:47:44.541Z,1010.04
2018-08-12T11:48:53.200Z,1010.04
2018-08-12T11:50:01.851Z,1010.08
2018-08-12T11:51:10.504Z,1010.05
2018-08-12T11:52:19.147Z,1009.99
2018-08-12T11:53:27.803Z,1010
2018-08-12T11:54:36.455Z,1009.96
2018-08-12T11:55:45.108Z,1009.99
2018-08-12T11:56:53.776Z,1009.92
2018-08-12T11:58:02.418Z,1009.94
2018-08-12T11:59:11.070Z,1009.96
2018-08-12T12:00:19.724Z,1009.97
2018-08-12T12:01:28.382Z,1009.93
2018-08-12T12:02:37.032Z,1009.93
2018-08-12T12:03:45.678Z,1009.91
2018-08-12T12:04:54.329Z,1009.97
2018-08-12T12:06:02.988Z,1009.9
2018-08-12T12:07:11.635Z,1009.86
2018-08-12T12:08:20.299Z,1009.88
2018-08-12T12:09:28.947Z,1009.83
2018-08-12T12:10:37.603Z,1009.78
2018-08-12T12:11:46.523Z,1009.78
2018-08-12T12:12:55.177Z,1009.73
2018-08-12T12:14:03.828Z,1009.78
2018-08-12T12:15:12.526Z,1009.72
2018-08-12T12:16:21.534Z,1009.76
2018-08-12T12:17:30.187Z,1009.69
2018-08-12T12:18:38.840Z,1009.7
2018-08-12T12:19:47.490Z,1009.66
2018-08-12T12:20:56.148Z,1009.64
2018-08-12T12:22:04.798Z,1009.63
2018-08-12T12:23:13.453Z,1009.59
2018-08-12T12:24:22.361Z,1009.61
2018-08-12T12:25:31.019Z,1009.55
2018-08-12T12:26:39.670Z,1009.53
2018-08-12T12:27:48.324Z,1009.47
2018-08-12T12:28:56.975Z,1009.43
2018-08-12T12:30:05.629Z,1009.51
2018-08-12T12:31:14.285Z,1009.45
2018-08-12T12:32:22.940Z,1009.39
2018-08-12T12:33:31.593Z,1009.38
2018-08-12T12:34:40.237Z,1009.37
2018-08-12T12:35:49.156Z,1009.4
2018-08-12T12:36:57.811Z,1009.42
2018-08-12T12:38:06.466Z,1009.38
2018-08-12T12:39:15.115Z,1009.31
2018-08-12T12:40:23.766Z,1009.3
2018-08-12T12:41:32.420Z,1009.37
2018-08-12T12:42:41.081Z,1009.29
2018-08-12T12:43:50.063Z,1009.27
2018-08-12T12:44:58.720Z,1009.32
2018-08-12T12:46:07.373Z,1009.3
2018-08-12T12:47:16.034Z,1009.26
2018-08-12T12:48:24.686Z,1009.2
2018-08-12T12:49:33.441Z,1009.18
2018-08-12T12:50:42.521Z,1009.17
2018-08-12T12:51:51.090Z,1009.1
2018-08-12T12:52:59.740Z,1009.06
2018-08-12T12:54:08.661Z,1009.07
2018-08-12T12:55:17.312Z,1009.08
2018-08-12T12:56:25.983Z,1009.06
2018-08-12T12:57:34.621Z,1009.07
2018-08-12T12:58:43.541Z,1009.05
2018-08-12T12:59:52.192Z,1009.07
2018-08-12T13:01:00.853Z,1008.99
2018-08-12T13:02:09.503Z,1009
2018-08-12T13:03:18.159Z,1008.98
2018-08-12T13:04:26.809Z,1008.98
2018-08-12T13:05:35.469Z,1008.99
2018-08-12T13:06:44.110Z,1008.99
2018-08-12T13:07:53.024Z,1008.9
2018-08-12T13:09:01.675Z,1008.94
2018-08-12T13:10:10.329Z,1008.94
2018-08-12T13:11:18.982Z,1008.88
2018-08-12T13:12:27.706Z,1008.86
2018-08-12T13:13:36.288Z,1008.87
2018-08-12T13:14:45.200Z,1008.87
2018-08-12T13:15:53.857Z,1008.78
2018-08-12T13:17:02.775Z,1008.78
2018-08-12T13:18:11.425Z,1008.81
2018-08-12T13:19:20.079Z,1008.83
2018-08-12T13:20:29.591Z,1008.85
2018-08-12T13:21:38.238Z,1008.81
2018-08-12T13:22:46.892Z,1008.92
2018-08-12T13:23:55.544Z,1008.88
2018-08-12T13:25:04.208Z,1008.83
2018-08-12T13:26:12.853Z,1008.83
2018-08-12T13:27:21.772Z,1008.75
2018-08-12T13:28:30.693Z,1008.77
2018-08-12T13:29:39.343Z,1008.7
2018-08-12T13:30:47.995Z,1008.67
2018-08-12T13:31:56.651Z,1008.72
2018-08-12T13:33:05.358Z,1008.69
2018-08-12T13:34:14.340Z,1008.74
2018-08-12T13:35:22.991Z,1008.69
2018-08-12T13:36:31.644Z,1008.67
2018-08-12T13:37:40.301Z,1008.67
2018-08-12T13:38:49.217Z,1008.58
2018-08-12T13:39:57.875Z,1008.59
2018-08-12T13:41:06.802Z,1008.55
2018-08-12T13:42:15.461Z,1008.52
2018-08-12T13:43:24.135Z,1008.5
2018-08-12T13:44:32.764Z,1008.57
2018-08-12T13:45:41.682Z,1008.57
2018-08-12T13:46:50.333Z,1008.53
2018-08-12T13:47:58.989Z,1008.44
2018-08-12T13:49:07.917Z,1008.48
2018-08-12T13:50:16.556Z,1008.49
2018-08-12T13:51:25.201Z,1008.47
2018-08-12T13:52:33.866Z,1008.42
2018-08-12T13:53:42.519Z,1008.43